createdAt,value
2019-02-20T00:00:01.020Z,13.50
2019-02-20T00:00:36.122Z,15.20
2019-02-20T00:01:11.440Z,17.40
2019-02-20T00:01:46.635Z,15.70
2019-02-20T00:02:22.261Z,21.50
2019-02-20T00:02:57.551Z,20.90
2019-02-20T00:03:32.867Z,15.90
2019-02-20T00:04:08.375Z,12.00
2019-02-20T00:04:43.688Z,15.60
2019-02-20T00:05:18.813Z,18.60
2019-02-20T00:05:54.089Z,19.80
2019-02-20T00:06:29.398Z,12.70
2019-02-20T00:07:05.308Z,15.40
2019-02-20T00:07:40.588Z,24.30
2019-02-20T00:08:16.196Z,19.10
2019-02-20T00:08:51.593Z,20.70
2019-02-20T00:09:27.015Z,19.40
2019-02-20T00:10:02.153Z,19.10
2019-02-20T00:10:37.790Z,26.00
2019-02-20T00:11:13.037Z,20.70
2019-02-20T00:11:48.175Z,17.90
2019-02-20T00:12:23.685Z,24.50
2019-02-20T00:12:59.403Z,22.90
2019-02-20T00:13:34.426Z,16.80
2019-02-20T00:14:09.949Z,15.10
2019-02-20T00:14:45.182Z,16.40
2019-02-20T00:15:20.280Z,22.80
2019-02-20T00:15:55.982Z,16.30
2019-02-20T00:16:31.289Z,11.10
2019-02-20T00:17:06.573Z,15.20
2019-02-20T00:17:42.186Z,21.90
2019-02-20T00:18:17.662Z,28.00
2019-02-20T00:18:52.943Z,26.70
2019-02-20T00:19:28.157Z,23.30
2019-02-20T00:20:03.560Z,22.70
2019-02-20T00:20:38.869Z,23.80
2019-02-20T00:21:14.199Z,17.80
2019-02-20T00:21:49.271Z,12.80
2019-02-20T00:22:24.396Z,15.20
2019-02-20T00:22:59.772Z,16.40
2019-02-20T00:23:35.089Z,17.20
2019-02-20T00:24:10.157Z,16.70
2019-02-20T00:24:45.389Z,19.60
2019-02-20T00:25:20.793Z,14.70
2019-02-20T00:25:55.990Z,15.90
2019-02-20T00:26:31.497Z,14.70
2019-02-20T00:27:06.686Z,16.70
2019-02-20T00:27:42.104Z,17.00
2019-02-20T00:28:17.619Z,9.40
2019-02-20T00:28:52.906Z,12.40
2019-02-20T00:29:28.513Z,15.00
2019-02-20T00:30:04.051Z,16.40
2019-02-20T00:30:39.186Z,15.60
2019-02-20T00:31:14.511Z,13.60
2019-02-20T00:31:49.702Z,17.00
2019-02-20T00:32:24.920Z,22.30
2019-02-20T00:33:00.131Z,22.60
2019-02-20T00:33:35.238Z,19.30
2019-02-20T00:34:10.532Z,16.70
2019-02-20T00:34:45.771Z,18.80
2019-02-20T00:35:20.983Z,15.60
2019-02-20T00:35:56.371Z,13.40
2019-02-20T00:36:32.115Z,12.10
2019-02-20T00:37:07.271Z,15.30
2019-02-20T00:37:42.611Z,20.50
2019-02-20T00:38:17.922Z,20.20
2019-02-20T00:38:53.211Z,21.80
2019-02-20T00:39:28.722Z,28.10
2019-02-20T00:40:04.056Z,19.30
2019-02-20T00:40:39.171Z,17.20
2019-02-20T00:41:14.583Z,26.70
2019-02-20T00:41:49.970Z,20.30
2019-02-20T00:42:25.804Z,16.90
2019-02-20T00:43:01.109Z,20.70
2019-02-20T00:43:36.536Z,19.20
2019-02-20T00:44:11.635Z,21.90
2019-02-20T00:44:46.937Z,24.00
2019-02-20T00:45:22.282Z,21.00
2019-02-20T00:45:57.757Z,23.70
2019-02-20T00:46:33.187Z,18.20
2019-02-20T00:47:08.672Z,12.70
2019-02-20T00:47:43.805Z,16.80
2019-02-20T00:48:19.459Z,16.70
2019-02-20T00:48:54.859Z,18.80
2019-02-20T00:49:30.476Z,19.50
2019-02-20T00:50:06.125Z,18.90
2019-02-20T00:50:41.551Z,16.40
2019-02-20T00:51:16.966Z,14.70
2019-02-20T00:51:52.471Z,20.80
2019-02-20T00:52:27.572Z,18.00
2019-02-20T00:53:03.383Z,20.20
2019-02-20T00:53:38.702Z,16.90
2019-02-20T00:54:13.997Z,19.50
2019-02-20T00:54:49.412Z,19.30
2019-02-20T00:55:24.582Z,19.10
2019-02-20T00:55:59.975Z,20.80
2019-02-20T00:56:35.173Z,23.20
2019-02-20T00:57:10.784Z,22.20
2019-02-20T00:57:46.100Z,23.30
2019-02-20T00:58:21.592Z,23.60
2019-02-20T00:58:57.027Z,22.10
2019-02-20T00:59:32.649Z,18.70
2019-02-20T01:00:07.967Z,21.50
2019-02-20T01:00:43.514Z,18.70
2019-02-20T01:01:18.902Z,17.50
2019-02-20T01:01:54.014Z,23.20
2019-02-20T01:02:29.524Z,19.00
2019-02-20T01:03:04.828Z,13.60
2019-02-20T01:03:40.259Z,12.30
2019-02-20T01:04:15.865Z,15.50
2019-02-20T01:04:51.281Z,19.30
2019-02-20T01:05:26.659Z,23.20
2019-02-20T01:06:02.087Z,18.90
2019-02-20T01:06:37.422Z,14.70
2019-02-20T01:07:12.610Z,14.60
2019-02-20T01:07:47.930Z,19.10
2019-02-20T01:08:23.514Z,19.30
2019-02-20T01:08:59.126Z,24.40
2019-02-20T01:09:34.634Z,24.70
2019-02-20T01:10:10.020Z,17.80
2019-02-20T01:10:45.524Z,12.60
2019-02-20T01:11:20.959Z,17.00
2019-02-20T01:11:56.583Z,16.30
2019-02-20T01:12:31.861Z,14.80
2019-02-20T01:13:07.394Z,23.60
2019-02-20T01:13:42.607Z,27.40
2019-02-20T01:14:18.396Z,21.30
2019-02-20T01:14:53.917Z,21.10
2019-02-20T01:15:29.335Z,23.20
2019-02-20T01:16:04.646Z,19.10
2019-02-20T01:16:40.413Z,17.70
2019-02-20T01:17:15.715Z,21.90
2019-02-20T01:17:51.108Z,25.70
2019-02-20T01:18:26.397Z,23.10
2019-02-20T01:19:01.718Z,17.00
2019-02-20T01:19:37.228Z,18.60
2019-02-20T01:20:12.611Z,22.60
2019-02-20T01:20:47.805Z,18.00
2019-02-20T01:21:23.009Z,22.10
2019-02-20T01:21:58.135Z,20.90
2019-02-20T01:22:33.630Z,21.90
2019-02-20T01:23:08.854Z,16.30
2019-02-20T01:23:44.338Z,17.30
2019-02-20T01:24:19.859Z,20.20
2019-02-20T01:24:55.055Z,18.20
2019-02-20T01:25:30.344Z,14.70
2019-02-20T01:26:05.685Z,16.60
2019-02-20T01:26:40.865Z,18.50
2019-02-20T01:27:16.106Z,20.10
2019-02-20T01:27:51.405Z,20.40
2019-02-20T01:28:26.812Z,18.60
2019-02-20T01:29:02.127Z,21.70
2019-02-20T01:29:37.814Z,18.40
2019-02-20T01:30:13.227Z,21.30
2019-02-20T01:30:48.323Z,21.60
2019-02-20T01:31:23.742Z,26.00
2019-02-20T01:31:58.938Z,28.50
2019-02-20T01:32:34.256Z,23.10
2019-02-20T01:33:09.691Z,22.10
2019-02-20T01:33:44.969Z,17.30
2019-02-20T01:34:20.174Z,15.10
2019-02-20T01:34:55.498Z,16.60
2019-02-20T01:35:30.981Z,17.00
2019-02-20T01:36:06.296Z,18.80
2019-02-20T01:36:41.478Z,18.50
2019-02-20T01:37:16.694Z,18.20
2019-02-20T01:37:51.956Z,13.80
2019-02-20T01:38:27.372Z,23.30
2019-02-20T01:39:22.868Z,24.40
2019-02-20T01:39:58.364Z,19.40
2019-02-20T01:40:33.482Z,22.50
2019-02-20T01:41:09.207Z,24.00
2019-02-20T01:41:44.510Z,18.10
2019-02-20T01:42:19.805Z,20.10
2019-02-20T01:42:55.241Z,20.80
2019-02-20T01:43:30.632Z,17.60
2019-02-20T01:44:05.935Z,22.60
2019-02-20T01:44:41.370Z,19.80
2019-02-20T01:45:16.894Z,20.70
2019-02-20T01:45:52.371Z,17.90
2019-02-20T01:46:27.862Z,18.00
2019-02-20T01:47:03.297Z,17.30
2019-02-20T01:47:38.590Z,22.10
2019-02-20T01:48:14.035Z,22.00
2019-02-20T01:48:49.473Z,18.00
2019-02-20T01:49:24.764Z,17.60
2019-02-20T01:50:00.313Z,19.30
2019-02-20T01:50:35.673Z,20.60
2019-02-20T01:51:10.980Z,20.20
2019-02-20T01:51:46.308Z,21.40
2019-02-20T01:52:21.887Z,23.80
2019-02-20T01:52:57.702Z,24.20
2019-02-20T01:53:33.027Z,23.60
2019-02-20T01:54:08.250Z,18.30
2019-02-20T01:54:43.228Z,18.50
2019-02-20T01:55:18.547Z,20.30
2019-02-20T01:55:53.869Z,17.70
2019-02-20T01:56:29.558Z,15.80
2019-02-20T01:57:04.859Z,21.20
2019-02-20T01:57:40.243Z,20.30
2019-02-20T01:58:15.665Z,19.00
2019-02-20T01:58:50.894Z,19.70
2019-02-20T01:59:26.210Z,21.40
2019-02-20T02:00:01.633Z,25.70
2019-02-20T02:00:37.438Z,24.80
2019-02-20T02:01:12.454Z,21.70
2019-02-20T02:01:47.749Z,21.00
2019-02-20T02:02:23.087Z,20.80
2019-02-20T02:02:58.462Z,22.60
2019-02-20T02:03:33.683Z,18.90
2019-02-20T02:04:09.033Z,16.30
2019-02-20T02:04:44.713Z,27.30
2019-02-20T02:05:20.148Z,27.20
2019-02-20T02:05:55.528Z,22.20
2019-02-20T02:06:30.825Z,25.40
2019-02-20T02:07:06.432Z,15.10
2019-02-20T02:07:42.038Z,16.70
2019-02-20T02:08:17.685Z,21.90
2019-02-20T02:08:53.173Z,22.50
2019-02-20T02:09:28.624Z,19.50
2019-02-20T02:10:04.016Z,24.30
2019-02-20T02:10:39.430Z,23.50
2019-02-20T02:11:14.752Z,20.30
2019-02-20T02:11:50.029Z,16.90
2019-02-20T02:12:25.646Z,13.50
2019-02-20T02:13:00.942Z,12.30
2019-02-20T02:13:36.462Z,17.70
2019-02-20T02:14:11.841Z,23.80
2019-02-20T02:14:47.190Z,18.40
2019-02-20T02:15:22.503Z,17.30
2019-02-20T02:15:57.824Z,22.60
2019-02-20T02:16:33.133Z,20.00
2019-02-20T02:17:08.742Z,23.40
2019-02-20T02:17:44.298Z,23.70
2019-02-20T02:18:19.762Z,24.90
2019-02-20T02:18:54.980Z,23.20
2019-02-20T02:19:30.371Z,21.30
2019-02-20T02:20:05.807Z,22.90
2019-02-20T02:20:41.193Z,24.60
2019-02-20T02:21:16.694Z,25.40
2019-02-20T02:21:51.794Z,20.40
2019-02-20T02:22:27.206Z,19.50
2019-02-20T02:23:02.930Z,27.00
2019-02-20T02:23:38.223Z,26.00
2019-02-20T02:24:13.561Z,20.30
2019-02-20T02:24:49.170Z,20.70
2019-02-20T02:25:24.618Z,22.20
2019-02-20T02:25:59.948Z,27.70
2019-02-20T02:26:35.239Z,29.40
2019-02-20T02:27:10.992Z,22.70
2019-02-20T02:27:46.109Z,20.50
2019-02-20T02:28:21.714Z,23.50
2019-02-20T02:28:56.987Z,28.60
2019-02-20T02:29:32.480Z,30.90
2019-02-20T02:30:07.740Z,21.60
2019-02-20T02:30:43.354Z,21.00
2019-02-20T02:31:18.819Z,22.20
2019-02-20T02:31:53.983Z,22.90
2019-02-20T02:32:29.422Z,25.50
2019-02-20T02:33:04.950Z,23.90
2019-02-20T02:33:40.535Z,18.50
2019-02-20T02:34:15.963Z,22.80
2019-02-20T02:34:51.279Z,25.50
2019-02-20T02:35:26.695Z,21.90
2019-02-20T02:36:02.097Z,24.30
2019-02-20T02:36:37.818Z,31.80
2019-02-20T02:37:12.827Z,34.80
2019-02-20T02:37:48.073Z,27.80
2019-02-20T02:38:23.464Z,19.70
2019-02-20T02:38:58.850Z,26.20
2019-02-20T02:39:34.219Z,23.30
2019-02-20T02:40:09.636Z,28.60
2019-02-20T02:40:45.153Z,34.90
2019-02-20T02:41:20.265Z,29.80
2019-02-20T02:41:55.804Z,27.60
2019-02-20T02:42:31.628Z,23.70
2019-02-20T02:43:07.011Z,18.60
2019-02-20T02:43:42.249Z,24.50
2019-02-20T02:44:17.446Z,28.10
2019-02-20T02:44:52.768Z,26.30
2019-02-20T02:45:28.205Z,28.00
2019-02-20T02:46:03.488Z,32.20
2019-02-20T02:46:38.841Z,27.20
2019-02-20T02:47:14.226Z,29.00
2019-02-20T02:47:49.764Z,32.30
2019-02-20T02:48:25.071Z,26.80
2019-02-20T02:49:00.564Z,28.20
2019-02-20T02:49:35.897Z,32.50
2019-02-20T02:50:11.096Z,23.70
2019-02-20T02:50:46.529Z,28.90
2019-02-20T02:51:21.938Z,30.70
2019-02-20T02:51:57.293Z,25.20
2019-02-20T02:52:32.603Z,23.40
2019-02-20T02:53:07.983Z,27.80
2019-02-20T02:53:43.341Z,21.50
2019-02-20T02:54:18.430Z,22.10
2019-02-20T02:54:53.662Z,23.00
2019-02-20T02:55:28.967Z,22.80
2019-02-20T02:56:04.462Z,25.50
2019-02-20T02:56:40.166Z,25.30
2019-02-20T02:57:15.487Z,27.90
2019-02-20T02:57:51.095Z,33.40
2019-02-20T02:58:26.492Z,31.00
2019-02-20T02:59:01.598Z,33.40
2019-02-20T02:59:36.921Z,28.00
2019-02-20T03:00:12.123Z,25.00
2019-02-20T03:00:47.542Z,29.80
2019-02-20T03:01:22.823Z,32.00
2019-02-20T03:01:58.259Z,30.00
2019-02-20T03:02:33.874Z,27.40
2019-02-20T03:03:09.501Z,25.70
2019-02-20T03:03:44.721Z,31.30
2019-02-20T03:04:20.309Z,22.60
2019-02-20T03:04:55.833Z,24.70
2019-02-20T03:05:31.134Z,31.60
2019-02-20T03:06:06.340Z,30.20
2019-02-20T03:06:41.738Z,29.00
2019-02-20T03:07:17.261Z,22.90
2019-02-20T03:07:52.609Z,22.60
2019-02-20T03:08:27.912Z,26.10
2019-02-20T03:09:03.326Z,25.00
2019-02-20T03:09:38.817Z,24.00
2019-02-20T03:10:14.433Z,28.10
2019-02-20T03:10:49.644Z,29.80
2019-02-20T03:11:24.947Z,29.60
2019-02-20T03:12:00.380Z,31.30
2019-02-20T03:12:35.913Z,32.00
2019-02-20T03:13:11.449Z,33.70
2019-02-20T03:13:46.671Z,37.70
2019-02-20T03:14:21.864Z,31.20
2019-02-20T03:14:57.487Z,28.10
2019-02-20T03:15:32.911Z,27.10
2019-02-20T03:16:08.117Z,27.10
2019-02-20T03:16:43.426Z,31.50
2019-02-20T03:17:18.522Z,31.60
2019-02-20T03:17:53.920Z,32.00
2019-02-20T03:18:29.449Z,33.60
2019-02-20T03:19:04.862Z,29.60
2019-02-20T03:19:40.269Z,36.10
2019-02-20T03:20:15.568Z,30.70
2019-02-20T03:20:51.169Z,25.30
2019-02-20T03:21:26.587Z,26.40
2019-02-20T03:22:01.721Z,26.00
2019-02-20T03:22:37.293Z,24.50
2019-02-20T03:23:12.657Z,25.00
2019-02-20T03:23:48.186Z,29.50
2019-02-20T03:24:23.797Z,32.10
2019-02-20T03:24:59.183Z,32.10
2019-02-20T03:25:34.536Z,24.50
2019-02-20T03:26:10.050Z,24.80
2019-02-20T03:26:45.436Z,25.90
2019-02-20T03:27:20.760Z,31.00
2019-02-20T03:27:55.959Z,41.00
2019-02-20T03:28:31.362Z,38.30
2019-02-20T03:29:06.811Z,30.30
2019-02-20T03:29:42.325Z,31.00
2019-02-20T03:30:17.926Z,28.00
2019-02-20T03:30:53.217Z,27.00
2019-02-20T03:31:28.627Z,35.50
2019-02-20T03:32:03.957Z,36.50
2019-02-20T03:32:39.690Z,37.50
2019-02-20T03:33:15.110Z,37.70
2019-02-20T03:33:50.607Z,35.30
2019-02-20T03:34:26.076Z,32.10
2019-02-20T03:35:01.767Z,45.10
2019-02-20T03:35:37.108Z,54.20
2019-02-20T03:36:12.353Z,36.00
2019-02-20T03:36:47.935Z,33.70
2019-02-20T03:37:23.260Z,35.80
2019-02-20T03:37:58.358Z,29.10
2019-02-20T03:38:33.770Z,30.80
2019-02-20T03:39:09.249Z,31.40
2019-02-20T03:39:44.312Z,27.80
2019-02-20T03:40:19.389Z,30.40
2019-02-20T03:40:55.072Z,35.40
2019-02-20T03:41:30.578Z,36.60
2019-02-20T03:42:05.793Z,28.10
2019-02-20T03:42:41.298Z,27.70
2019-02-20T03:43:16.713Z,32.60
2019-02-20T03:43:52.336Z,30.50
2019-02-20T03:44:27.953Z,32.40
2019-02-20T03:45:03.588Z,33.40
2019-02-20T03:45:38.791Z,32.10
2019-02-20T03:46:13.910Z,33.20
2019-02-20T03:46:49.198Z,27.90
2019-02-20T03:47:24.541Z,31.70
2019-02-20T03:48:00.026Z,27.80
2019-02-20T03:48:35.550Z,27.80
2019-02-20T03:49:10.860Z,27.20
2019-02-20T03:49:45.847Z,32.00
2019-02-20T03:50:21.507Z,35.30
2019-02-20T03:50:57.091Z,30.20
2019-02-20T03:51:32.509Z,25.00
2019-02-20T03:52:07.807Z,23.70
2019-02-20T03:52:43.121Z,25.50
2019-02-20T03:53:18.751Z,33.30
2019-02-20T03:53:54.069Z,33.30
2019-02-20T03:54:29.696Z,34.30
2019-02-20T03:55:05.076Z,34.00
2019-02-20T03:55:40.644Z,31.10
2019-02-20T03:56:16.055Z,30.60
2019-02-20T03:56:51.552Z,30.80
2019-02-20T03:57:26.570Z,38.20
2019-02-20T03:58:01.765Z,33.60
2019-02-20T03:58:37.280Z,34.20
2019-02-20T03:59:12.284Z,34.10
2019-02-20T03:59:47.596Z,25.10
2019-02-20T04:00:23.117Z,28.00
2019-02-20T04:00:58.542Z,37.10
2019-02-20T04:01:34.279Z,31.00
2019-02-20T04:02:09.663Z,32.20
2019-02-20T04:02:45.274Z,26.80
2019-02-20T04:03:20.902Z,28.30
2019-02-20T04:03:56.349Z,27.30
2019-02-20T04:04:32.180Z,27.30
2019-02-20T04:05:07.377Z,38.20
2019-02-20T04:05:42.705Z,39.70
2019-02-20T04:06:18.318Z,33.60
2019-02-20T04:06:54.036Z,32.20
2019-02-20T04:07:29.157Z,34.30
2019-02-20T04:08:04.549Z,33.10
2019-02-20T04:08:39.865Z,28.90
2019-02-20T04:09:15.251Z,31.80
2019-02-20T04:09:50.583Z,31.00
2019-02-20T04:10:25.764Z,34.90
2019-02-20T04:11:01.185Z,35.90
2019-02-20T04:11:36.323Z,28.50
2019-02-20T04:12:11.809Z,28.40
2019-02-20T04:12:47.121Z,30.60
2019-02-20T04:13:22.336Z,29.10
2019-02-20T04:13:57.651Z,32.00
2019-02-20T04:14:32.847Z,32.50
2019-02-20T04:15:08.169Z,26.70
2019-02-20T04:15:43.584Z,31.30
2019-02-20T04:16:18.858Z,30.20
2019-02-20T04:16:54.186Z,30.50
2019-02-20T04:17:29.476Z,26.30
2019-02-20T04:18:04.983Z,26.30
2019-02-20T04:18:40.467Z,32.10
2019-02-20T04:19:16.185Z,33.00
2019-02-20T04:19:51.615Z,30.30
2019-02-20T04:20:27.401Z,31.60
2019-02-20T04:21:02.621Z,33.40
2019-02-20T04:21:38.014Z,34.30
2019-02-20T04:22:13.267Z,30.00
2019-02-20T04:22:48.856Z,28.40
2019-02-20T04:23:24.285Z,30.00
2019-02-20T04:24:02.485Z,30.50
2019-02-20T04:24:34.813Z,33.40
2019-02-20T04:25:10.154Z,30.90
2019-02-20T04:25:45.340Z,28.10
2019-02-20T04:26:20.762Z,29.20
2019-02-20T04:26:55.847Z,34.60
2019-02-20T04:27:31.312Z,33.10
2019-02-20T04:28:07.139Z,29.60
2019-02-20T04:28:42.480Z,26.50
2019-02-20T04:29:17.677Z,31.60
2019-02-20T04:29:52.884Z,37.00
2019-02-20T04:30:28.507Z,39.50
2019-02-20T04:31:03.923Z,32.30
2019-02-20T04:31:39.210Z,25.40
2019-02-20T04:32:14.610Z,25.30
2019-02-20T04:32:50.435Z,25.80
2019-02-20T04:33:25.747Z,30.10
2019-02-20T04:34:00.847Z,30.40
2019-02-20T04:34:36.065Z,27.50
2019-02-20T04:35:11.289Z,32.50
2019-02-20T04:35:46.307Z,27.20
2019-02-20T04:36:21.617Z,23.20
2019-02-20T04:36:57.117Z,30.50
2019-02-20T04:37:32.826Z,29.40
2019-02-20T04:38:08.242Z,31.70
2019-02-20T04:38:43.554Z,33.40
2019-02-20T04:39:18.973Z,25.20
2019-02-20T04:39:54.277Z,22.80
2019-02-20T04:40:29.685Z,28.30
2019-02-20T04:41:05.173Z,27.00
2019-02-20T04:41:40.475Z,24.40
2019-02-20T04:42:15.976Z,24.10
2019-02-20T04:42:51.483Z,32.10
2019-02-20T04:43:26.832Z,34.50
2019-02-20T04:44:02.026Z,36.10
2019-02-20T04:44:37.140Z,31.60
2019-02-20T04:45:12.430Z,26.40
2019-02-20T04:45:47.869Z,23.50
2019-02-20T04:46:23.329Z,27.50
2019-02-20T04:46:58.659Z,29.50
2019-02-20T04:47:33.572Z,32.70
2019-02-20T04:48:08.973Z,28.70
2019-02-20T04:48:44.407Z,26.10
2019-02-20T04:49:19.807Z,31.50
2019-02-20T04:49:55.338Z,29.60
2019-02-20T04:50:30.827Z,24.80
2019-02-20T04:51:06.158Z,23.90
2019-02-20T04:51:42.083Z,24.30
2019-02-20T04:52:17.572Z,26.40
2019-02-20T04:52:52.889Z,26.50
2019-02-20T04:53:28.170Z,29.70
2019-02-20T04:54:12.626Z,31.90
2019-02-20T04:54:38.744Z,28.80
2019-02-20T04:55:14.075Z,27.60
2019-02-20T04:55:49.529Z,28.50
2019-02-20T04:56:25.217Z,22.80
2019-02-20T04:57:00.425Z,24.20
2019-02-20T04:57:35.726Z,31.30
2019-02-20T04:58:11.223Z,32.40
2019-02-20T04:58:46.751Z,31.80
2019-02-20T04:59:22.012Z,32.30
2019-02-20T04:59:57.239Z,31.00
2019-02-20T05:00:32.645Z,29.30
2019-02-20T05:01:07.869Z,36.20
2019-02-20T05:01:43.158Z,38.00
2019-02-20T05:02:18.375Z,33.70
2019-02-20T05:02:53.806Z,32.40
2019-02-20T05:03:29.286Z,27.40
2019-02-20T05:04:04.715Z,22.00
2019-02-20T05:04:40.150Z,28.70
2019-02-20T05:05:15.465Z,29.70
2019-02-20T05:05:50.888Z,27.90
2019-02-20T05:06:26.211Z,28.90
2019-02-20T05:07:01.530Z,29.80
2019-02-20T05:07:36.771Z,30.60
2019-02-20T05:08:12.090Z,35.60
2019-02-20T05:08:47.800Z,35.80
2019-02-20T05:09:23.243Z,37.30
2019-02-20T05:09:58.792Z,33.40
2019-02-20T05:10:34.016Z,25.80
2019-02-20T05:11:09.233Z,20.70
2019-02-20T05:11:44.547Z,30.50
2019-02-20T05:12:19.732Z,37.60
2019-02-20T05:12:54.954Z,33.30
2019-02-20T05:13:30.373Z,34.70
2019-02-20T05:14:05.472Z,31.60
2019-02-20T05:14:40.882Z,27.20
2019-02-20T05:15:16.540Z,24.90
2019-02-20T05:15:51.763Z,34.40
2019-02-20T05:16:27.042Z,30.10
2019-02-20T05:17:02.268Z,27.10
2019-02-20T05:17:37.576Z,24.60
2019-02-20T05:18:13.072Z,23.30
2019-02-20T05:18:48.582Z,26.50
2019-02-20T05:19:23.869Z,28.60
2019-02-20T05:19:59.248Z,22.00
2019-02-20T05:20:34.756Z,22.10
2019-02-20T05:21:10.359Z,29.60
2019-02-20T05:21:45.598Z,28.10
2019-02-20T05:22:20.711Z,30.30
2019-02-20T05:22:56.265Z,33.70
2019-02-20T05:23:31.570Z,31.50
2019-02-20T05:24:06.893Z,21.80
2019-02-20T05:24:42.091Z,30.00
2019-02-20T05:25:17.377Z,34.60
2019-02-20T05:25:52.921Z,32.20
2019-02-20T05:26:28.561Z,32.00
2019-02-20T05:27:04.259Z,32.00
2019-02-20T05:27:39.582Z,22.60
2019-02-20T05:28:14.888Z,27.80
2019-02-20T05:28:49.842Z,28.30
2019-02-20T05:29:25.048Z,31.40
2019-02-20T05:30:00.758Z,31.50
2019-02-20T05:30:36.415Z,27.00
2019-02-20T05:31:11.732Z,27.20
2019-02-20T05:31:47.134Z,24.90
2019-02-20T05:32:22.529Z,26.40
2019-02-20T05:32:57.870Z,34.40
2019-02-20T05:33:33.454Z,36.70
2019-02-20T05:34:08.879Z,35.40
2019-02-20T05:34:44.186Z,26.60
2019-02-20T05:35:19.579Z,28.80
2019-02-20T05:35:54.892Z,25.20
2019-02-20T05:36:30.113Z,19.70
2019-02-20T05:37:05.533Z,20.30
2019-02-20T05:37:41.146Z,27.00
2019-02-20T05:38:16.461Z,30.00
2019-02-20T05:38:52.154Z,24.90
2019-02-20T05:39:27.863Z,21.10
2019-02-20T05:40:03.369Z,25.10
2019-02-20T05:40:38.569Z,30.50
2019-02-20T05:41:14.249Z,35.80
2019-02-20T05:41:49.451Z,30.40
2019-02-20T05:42:24.878Z,29.40
2019-02-20T05:43:00.463Z,22.30
2019-02-20T05:43:35.685Z,24.10
2019-02-20T05:44:11.277Z,32.50
2019-02-20T05:44:46.679Z,30.70
2019-02-20T05:45:22.058Z,24.40
2019-02-20T05:45:57.408Z,26.20
2019-02-20T05:46:33.093Z,29.10
2019-02-20T05:47:08.687Z,30.00
2019-02-20T05:47:44.218Z,28.10
2019-02-20T05:48:19.602Z,28.70
2019-02-20T05:48:54.923Z,26.90
2019-02-20T05:49:30.207Z,32.10
2019-02-20T05:50:05.747Z,34.30
2019-02-20T05:50:41.168Z,32.90
2019-02-20T05:51:16.391Z,29.70
2019-02-20T05:51:51.665Z,26.90
2019-02-20T05:52:27.110Z,26.90
2019-02-20T05:53:02.081Z,32.80
2019-02-20T05:53:37.799Z,33.90
2019-02-20T05:54:13.226Z,30.10
2019-02-20T05:54:48.525Z,27.90
2019-02-20T05:55:23.838Z,31.20
2019-02-20T05:55:59.050Z,32.70
2019-02-20T05:56:34.380Z,27.30
2019-02-20T05:57:09.887Z,24.80
2019-02-20T05:57:45.325Z,25.90
2019-02-20T05:58:20.620Z,33.30
2019-02-20T05:58:55.859Z,38.80
2019-02-20T05:59:31.365Z,38.90
2019-02-20T06:00:06.887Z,32.80
2019-02-20T06:00:42.310Z,32.80
2019-02-20T06:01:17.544Z,31.90
2019-02-20T06:01:52.767Z,30.60
2019-02-20T06:02:27.982Z,30.90
2019-02-20T06:03:04.896Z,29.00
2019-02-20T06:03:38.687Z,26.80
2019-02-20T06:04:13.884Z,32.30
2019-02-20T06:04:49.516Z,35.80
2019-02-20T06:05:24.813Z,31.20
2019-02-20T06:06:00.248Z,25.70
2019-02-20T06:06:35.417Z,29.90
2019-02-20T06:07:10.543Z,34.00
2019-02-20T06:07:45.954Z,32.80
2019-02-20T06:08:21.372Z,29.50
2019-02-20T06:08:56.759Z,29.40
2019-02-20T06:09:32.374Z,29.70
2019-02-20T06:10:07.958Z,32.40
2019-02-20T06:10:43.399Z,27.90
2019-02-20T06:11:18.894Z,30.60
2019-02-20T06:11:54.113Z,30.70
2019-02-20T06:12:29.482Z,35.20
2019-02-20T06:13:04.906Z,29.30
2019-02-20T06:13:40.288Z,22.70
2019-02-20T06:14:15.817Z,30.10
2019-02-20T06:14:51.609Z,26.60
2019-02-20T06:15:26.940Z,31.10
2019-02-20T06:16:02.541Z,39.60
2019-02-20T06:16:37.770Z,36.20
2019-02-20T06:17:13.062Z,34.50
2019-02-20T06:17:48.391Z,35.00
2019-02-20T06:18:23.703Z,29.00
2019-02-20T06:18:58.897Z,35.90
2019-02-20T06:19:34.042Z,37.80
2019-02-20T06:20:09.546Z,32.60
2019-02-20T06:20:45.209Z,33.70
2019-02-20T06:21:21.004Z,34.20
2019-02-20T06:21:56.418Z,25.60
2019-02-20T06:22:31.519Z,24.60
2019-02-20T06:23:06.929Z,24.90
2019-02-20T06:23:42.217Z,27.60
2019-02-20T06:24:17.648Z,36.80
2019-02-20T06:24:52.866Z,31.80
2019-02-20T06:25:28.208Z,27.90
2019-02-20T06:26:03.831Z,31.70
2019-02-20T06:26:39.017Z,28.30
2019-02-20T06:27:14.208Z,32.40
2019-02-20T06:27:49.423Z,27.80
2019-02-20T06:28:25.120Z,26.30
2019-02-20T06:29:00.542Z,33.90
2019-02-20T06:29:35.749Z,37.90
2019-02-20T06:30:11.171Z,34.60
2019-02-20T06:30:46.256Z,35.10
2019-02-20T06:31:21.932Z,30.30
2019-02-20T06:31:57.224Z,29.60
2019-02-20T06:32:32.546Z,33.80
2019-02-20T06:33:07.719Z,32.40
2019-02-20T06:33:43.247Z,28.40
2019-02-20T06:34:18.739Z,26.30
2019-02-20T06:34:54.352Z,39.30
2019-02-20T06:35:30.197Z,35.90
2019-02-20T06:36:05.681Z,31.50
2019-02-20T06:36:41.221Z,29.50
2019-02-20T06:37:16.625Z,34.00
2019-02-20T06:37:51.938Z,34.80
2019-02-20T06:38:27.247Z,29.10
2019-02-20T06:39:02.773Z,27.30
2019-02-20T06:39:37.954Z,34.30
2019-02-20T06:40:13.288Z,36.10
2019-02-20T06:40:48.774Z,30.60
2019-02-20T06:41:24.390Z,34.70
2019-02-20T06:41:59.700Z,34.80
2019-02-20T06:42:34.808Z,31.50
2019-02-20T06:43:10.296Z,29.20
2019-02-20T06:43:45.725Z,32.40
2019-02-20T06:44:21.250Z,38.60
2019-02-20T06:44:57.068Z,34.90
2019-02-20T06:45:32.379Z,27.80
2019-02-20T06:46:07.808Z,35.00
2019-02-20T06:46:43.131Z,35.10
2019-02-20T06:47:18.325Z,40.70
2019-02-20T06:47:53.630Z,38.60
2019-02-20T06:48:29.129Z,36.00
2019-02-20T06:49:04.617Z,32.30
2019-02-20T06:49:40.275Z,31.90
2019-02-20T06:50:15.469Z,34.80
2019-02-20T06:50:50.994Z,31.70
2019-02-20T06:51:26.439Z,31.10
2019-02-20T06:52:01.764Z,36.40
2019-02-20T06:52:37.192Z,41.80
2019-02-20T06:53:12.382Z,35.60
2019-02-20T06:53:47.821Z,29.10
2019-02-20T06:54:23.119Z,28.70
2019-02-20T06:54:58.346Z,33.40
2019-02-20T06:55:34.039Z,42.90
2019-02-20T06:56:09.663Z,38.90
2019-02-20T06:56:44.977Z,33.60
2019-02-20T06:57:20.017Z,32.00
2019-02-20T06:57:55.295Z,31.40
2019-02-20T06:58:30.714Z,31.50
2019-02-20T06:59:05.921Z,31.80
2019-02-20T06:59:41.348Z,31.10
2019-02-20T07:00:16.768Z,28.20
2019-02-20T07:00:52.307Z,24.90
2019-02-20T07:01:27.696Z,29.20
2019-02-20T07:02:03.044Z,29.90
2019-02-20T07:02:38.136Z,39.60
2019-02-20T07:03:13.351Z,39.80
2019-02-20T07:03:48.842Z,38.10
2019-02-20T07:04:23.986Z,35.40
2019-02-20T07:04:59.659Z,31.20
2019-02-20T07:05:34.971Z,30.70
2019-02-20T07:06:10.291Z,37.60
2019-02-20T07:06:45.836Z,36.90
2019-02-20T07:07:21.113Z,30.70
2019-02-20T07:07:56.422Z,32.90
2019-02-20T07:08:32.052Z,35.30
2019-02-20T07:09:07.242Z,36.00
2019-02-20T07:09:42.662Z,36.80
2019-02-20T07:10:18.254Z,33.70
2019-02-20T07:10:53.869Z,36.20
2019-02-20T07:11:29.050Z,39.90
2019-02-20T07:12:04.503Z,32.40
2019-02-20T07:12:39.583Z,30.30
2019-02-20T07:13:15.303Z,40.80
2019-02-20T07:13:51.113Z,44.90
2019-02-20T07:14:26.636Z,34.70
2019-02-20T07:15:02.150Z,32.00
2019-02-20T07:15:37.474Z,33.10
2019-02-20T07:16:12.674Z,33.60
2019-02-20T07:16:47.923Z,33.50
2019-02-20T07:17:23.437Z,32.20
2019-02-20T07:17:58.870Z,31.60
2019-02-20T07:18:34.271Z,31.00
2019-02-20T07:19:09.507Z,33.10
2019-02-20T07:19:44.899Z,33.90
2019-02-20T07:20:20.518Z,32.80
2019-02-20T07:20:56.119Z,35.70
2019-02-20T07:21:31.639Z,32.00
2019-02-20T07:22:06.871Z,36.50
2019-02-20T07:22:42.173Z,39.20
2019-02-20T07:23:17.520Z,39.20
2019-02-20T07:23:52.517Z,36.20
2019-02-20T07:24:27.820Z,31.00
2019-02-20T07:25:03.661Z,33.10
2019-02-20T07:25:38.640Z,41.10
2019-02-20T07:26:13.932Z,38.40
2019-02-20T07:26:49.480Z,36.10
2019-02-20T07:27:24.778Z,35.30
2019-02-20T07:28:00.391Z,37.60
2019-02-20T07:28:35.642Z,32.50
2019-02-20T07:29:11.218Z,30.80
2019-02-20T07:29:46.807Z,27.00
2019-02-20T07:30:22.022Z,33.30
2019-02-20T07:30:57.408Z,34.70
2019-02-20T07:31:32.628Z,28.40
2019-02-20T07:32:08.059Z,29.90
2019-02-20T07:32:43.583Z,30.90
2019-02-20T07:33:18.888Z,34.00
2019-02-20T07:33:54.300Z,38.40
2019-02-20T07:34:29.587Z,34.80
2019-02-20T07:35:04.801Z,33.50
2019-02-20T07:35:40.395Z,32.40